Time;durP1;ratioP1;P1;durP2;ratioP2;P2;SDS_P1;SDS_P2;PMS_P1;PMS_P2;Temp;Humidity;BMP_temperature;BMP_pressure;BME280_temperature;BME280_humidity;BME280_pressure;Samples;Min_cycle;Max_cycle;Signal;HPM_P1;HPM_P2
2021/04/27 00:00:56;;;;;;;0.40;0.40;;;21.80;56.90;;;;;;5082508;28;20037;-38
2021/04/27 00:03:22;;;;;;;0.40;0.40;;;21.80;57.00;;;;;;5082513;28;20029;-38
2021/04/27 00:05:48;;;;;;;0.40;0.40;;;21.80;57.00;;;;;;5085398;28;20054;-38
2021/04/27 00:08:14;;;;;;;0.40;0.40;;;21.80;57.00;;;;;;5095274;28;20107;-39
2021/04/27 00:10:41;;;;;;;0.32;0.30;;;21.80;56.90;;;;;;5095381;28;20035;-38
2021/04/27 00:13:08;;;;;;;0.40;0.40;;;21.80;56.90;;;;;;5095278;28;20040;-38
2021/04/27 00:15:37;;;;;;;0.32;0.32;;;21.80;56.70;;;;;;5096182;28;20031;-38
2021/04/27 00:18:04;;;;;;;0.40;0.40;;;21.70;56.60;;;;;;5095239;28;20035;-38
2021/04/27 00:20:30;;;;;;;0.40;0.40;;;21.70;56.60;;;;;;5094862;28;20028;-38
2021/04/27 00:22:56;;;;;;;0.40;0.40;;;21.70;56.50;;;;;;5094803;28;20070;-38
2021/04/27 00:25:23;;;;;;;0.40;0.40;;;21.70;56.50;;;;;;5093922;28;20039;-38
2021/04/27 00:27:51;;;;;;;0.30;0.30;;;21.70;56.40;;;;;;5094888;28;20113;-38
2021/04/27 00:30:18;;;;;;;0.40;0.40;;;21.70;56.40;;;;;;5095653;28;20028;-38
2021/04/27 00:32:44;;;;;;;;;;;21.70;56.40;;;;;;5077923;28;20100;-39
2021/04/27 00:35:11;;;;;;;0.43;0.40;;;21.70;56.20;;;;;;5095195;28;19935;-38
2021/04/27 00:37:37;;;;;;;0.22;0.22;;;21.70;56.60;;;;;;5101977;28;20071;-40
2021/04/27 00:40:05;;;;;;;0.40;0.40;;;21.70;56.60;;;;;;5102324;28;20043;-40
2021/04/27 00:42:32;;;;;;;0.40;0.40;;;21.70;56.60;;;;;;5102325;28;20024;-38
2021/04/27 00:44:58;;;;;;;0.75;0.40;;;21.60;56.60;;;;;;5102589;28;20059;-38
2021/04/27 00:47:25;;;;;;;0.65;0.50;;;21.60;56.60;;;;;;5102263;28;20024;-37
2021/04/27 00:49:53;;;;;;;0.40;0.38;;;21.60;56.50;;;;;;5102461;28;20058;-38
2021/04/27 00:52:20;;;;;;;0.40;0.40;;;21.70;56.60;;;;;;5101950;28;20036;-38
2021/04/27 00:54:46;;;;;;;0.32;0.30;;;21.60;56.60;;;;;;5102227;28;20628;-38
2021/04/27 00:57:12;;;;;;;0.50;0.50;;;21.60;56.70;;;;;;5102397;28;20059;-38
2021/04/27 00:59:39;;;;;;;0.77;0.50;;;21.60;56.60;;;;;;5102103;28;20028;-38
2021/04/27 01:02:05;;;;;;;0.40;0.40;;;21.60;56.70;;;;;;5102071;28;20264;-38
2021/04/27 01:04:32;;;;;;;0.40;0.40;;;21.60;56.60;;;;;;5102361;28;20154;-38
2021/04/27 01:06:59;;;;;;;0.45;0.45;;;21.60;56.60;;;;;;5102180;28;20163;-38
2021/04/27 01:09:39;;;;;;;0.40;0.40;;;21.60;56.70;;;;;;5101867;28;20060;-37
2021/04/27 01:12:44;;;;;;;0.40;0.40;;;21.60;56.80;;;;;;5102015;28;20072;-37
2021/04/27 01:15:13;;;;;;;0.52;0.50;;;21.50;57.00;;;;;;4999584;28;20046;-38
2021/04/27 01:17:39;;;;;;;0.55;0.45;;;21.60;57.00;;;;;;4999464;28;20033;-38
2021/04/27 01:20:11;;;;;;;0.50;0.50;;;21.50;57.00;;;;;;4983889;28;20056;-38
2021/04/27 01:22:48;;;;;;;0.55;0.50;;;21.50;57.10;;;;;;4999966;28;20141;-37
2021/04/27 01:25:15;;;;;;;0.40;0.40;;;21.50;57.20;;;;;;5013093;28;20054;-38
2021/04/27 01:27:42;;;;;;;0.52;0.52;;;21.50;57.30;;;;;;4987125;28;20058;-38
2021/04/27 01:30:08;;;;;;;0.50;0.50;;;21.50;57.30;;;;;;4986769;28;20033;-37
2021/04/27 01:32:35;;;;;;;0.50;0.50;;;21.50;57.30;;;;;;5003202;28;20042;-38
2021/04/27 01:35:01;;;;;;;0.73;0.60;;;21.50;57.80;;;;;;5003086;28;20034;-37
2021/04/27 01:37:28;;;;;;;0.50;0.50;;;21.50;57.20;;;;;;5002955;28;20031;-37
2021/04/27 01:39:54;;;;;;;0.70;0.60;;;21.50;57.20;;;;;;4986066;28;20034;-37
2021/04/27 01:42:20;;;;;;;0.50;0.50;;;21.40;57.10;;;;;;4986677;28;20034;-38
2021/04/27 01:44:46;;;;;;;0.45;0.45;;;21.40;57.10;;;;;;4986707;28;20630;-38
2021/04/27 01:47:12;;;;;;;0.82;0.50;;;21.40;57.00;;;;;;4986739;28;20030;-38
2021/04/27 01:49:40;;;;;;;0.63;0.60;;;21.40;56.90;;;;;;4989925;28;20093;-37
2021/04/27 01:52:06;;;;;;;0.75;0.60;;;21.40;56.90;;;;;;5104319;28;20031;-43
2021/04/27 01:54:33;;;;;;;0.50;0.50;;;21.40;56.80;;;;;;5086957;28;20145;-38
2021/04/27 01:56:59;;;;;;;0.82;0.70;;;21.40;56.90;;;;;;5105027;28;20111;-37
2021/04/27 01:59:25;;;;;;;0.50;0.50;;;21.40;56.80;;;;;;5104739;28;20047;-39
2021/04/27 02:01:52;;;;;;;0.52;0.50;;;21.40;56.70;;;;;;5105103;28;20031;-38
2021/04/27 02:04:22;;;;;;;0.50;0.50;;;21.40;56.70;;;;;;5086839;28;20054;-38
2021/04/27 02:06:49;;;;;;;0.60;0.50;;;21.40;56.70;;;;;;5104909;28;20035;-38
2021/04/27 02:09:15;;;;;;;0.50;0.50;;;21.30;56.50;;;;;;5104310;28;20052;-38
2021/04/27 02:11:45;;;;;;;0.70;0.60;;;21.30;56.60;;;;;;5086383;28;20063;-37
2021/04/27 02:14:12;;;;;;;0.68;0.68;;;21.30;56.50;;;;;;5086817;28;20032;-38
2021/04/27 02:16:44;;;;;;;0.60;0.60;;;21.30;56.60;;;;;;5104851;28;20436;-37
2021/04/27 02:19:11;;;;;;;0.60;0.60;;;21.30;56.60;;;;;;5104579;28;20044;-38
2021/04/27 02:21:39;;;;;;;0.52;0.52;;;21.30;56.60;;;;;;5104586;28;20028;-37
2021/04/27 02:24:05;;;;;;;1.00;0.80;;;21.30;56.60;;;;;;5103991;28;20346;-38
2021/04/27 02:26:32;;;;;;;0.60;0.60;;;21.20;56.60;;;;;;5069549;28;20028;-38
2021/04/27 02:28:58;;;;;;;0.50;0.50;;;21.20;56.60;;;;;;5086166;28;20119;-38
2021/04/27 02:31:24;;;;;;;0.70;0.60;;;21.20;56.60;;;;;;5086217;28;20753;-38
2021/04/27 02:33:50;;;;;;;1.00;0.70;;;21.20;56.70;;;;;;5085893;28;20051;-37
2021/04/27 02:36:16;;;;;;;0.50;0.50;;;21.20;56.70;;;;;;5104286;28;20024;-37
2021/04/27 02:38:43;;;;;;;0.75;0.60;;;21.20;56.70;;;;;;5104031;28;20031;-37
2021/04/27 02:41:09;;;;;;;0.67;0.67;;;21.20;56.80;;;;;;5104094;28;20020;-38
2021/04/27 02:43:38;;;;;;;0.55;0.50;;;21.10;56.70;;;;;;5104057;28;20058;-38
2021/04/27 02:46:04;;;;;;;0.60;0.60;;;21.10;56.70;;;;;;5104343;28;20109;-38
2021/04/27 02:48:30;;;;;;;0.80;0.80;;;21.10;56.80;;;;;;5104276;28;20085;-38
2021/04/27 02:50:58;;;;;;;0.60;0.60;;;21.10;56.90;;;;;;5103559;28;20093;-37
2021/04/27 02:53:24;;;;;;;;;;;21.10;56.90;;;;;;5085182;28;20047;-38
2021/04/27 02:55:50;;;;;;;1.27;0.80;;;21.10;56.90;;;;;;5103617;28;19904;-37
2021/04/27 02:58:16;;;;;;;0.70;0.70;;;21.00;56.90;;;;;;5104037;28;20030;-38
2021/04/27 03:00:42;;;;;;;0.70;0.70;;;21.00;56.90;;;;;;5103815;28;20016;-37
2021/04/27 03:03:09;;;;;;;0.70;0.60;;;21.00;56.90;;;;;;5103818;28;20564;-37
2021/04/27 03:05:35;;;;;;;1.80;0.82;;;21.00;56.80;;;;;;5103891;28;20020;-37
2021/04/27 03:08:02;;;;;;;0.70;0.70;;;21.00;56.90;;;;;;5103528;28;20094;-37
2021/04/27 03:10:28;;;;;;;0.60;0.50;;;21.00;56.90;;;;;;5103133;28;20039;-38
2021/04/27 03:12:55;;;;;;;0.63;0.47;;;21.00;56.90;;;;;;5106583;28;20040;-38
2021/04/27 03:15:21;;;;;;;0.80;0.80;;;20.90;56.90;;;;;;5103379;28;20028;-37
2021/04/27 03:17:47;;;;;;;0.70;0.60;;;20.90;56.90;;;;;;5102334;28;20032;-39
2021/04/27 03:20:14;;;;;;;0.80;0.65;;;20.90;56.90;;;;;;5103247;28;20036;-38
2021/04/27 03:22:41;;;;;;;0.70;0.70;;;20.90;56.90;;;;;;5109018;28;20020;-38
2021/04/27 03:25:07;;;;;;;2.03;0.80;;;20.90;56.90;;;;;;5103119;28;20472;-38
2021/04/27 03:27:34;;;;;;;0.60;0.60;;;20.90;57.00;;;;;;5103431;28;20028;-38
2021/04/27 03:30:00;;;;;;;0.60;0.60;;;20.90;57.00;;;;;;5102456;28;20325;-37
2021/04/27 03:32:26;;;;;;;0.60;0.60;;;20.90;57.00;;;;;;5103209;28;20055;-38
2021/04/27 03:34:53;;;;;;;2.00;0.70;;;20.80;57.00;;;;;;5102497;28;20087;-38
2021/04/27 03:37:19;;;;;;;1.48;0.70;;;20.80;57.00;;;;;;5103063;28;20126;-37
2021/04/27 03:39:45;;;;;;;0.60;0.60;;;20.80;57.00;;;;;;5102759;28;20080;-38
2021/04/27 03:42:12;;;;;;;0.73;0.65;;;20.80;57.10;;;;;;5102886;28;20103;-37
2021/04/27 03:44:38;;;;;;;1.05;0.90;;;20.80;57.10;;;;;;5102903;28;20052;-37
2021/04/27 03:47:04;;;;;;;0.88;0.70;;;20.80;57.10;;;;;;5102688;28;20059;-37
2021/04/27 03:49:31;;;;;;;0.70;0.70;;;20.70;57.10;;;;;;5102969;28;20040;-39
2021/04/27 03:51:57;;;;;;;1.23;0.60;;;20.70;57.10;;;;;;5102469;28;20020;-37
2021/04/27 03:54:24;;;;;;;1.00;0.80;;;20.70;57.10;;;;;;5102107;28;20040;-37
2021/04/27 03:56:50;;;;;;;0.80;0.73;;;20.70;57.10;;;;;;5102853;28;20024;-37
2021/04/27 03:59:16;;;;;;;0.60;0.60;;;20.70;57.20;;;;;;5102854;28;20032;-38
2021/04/27 04:01:42;;;;;;;0.93;0.82;;;20.70;57.30;;;;;;5102782;28;20388;-37
2021/04/27 04:04:08;;;;;;;1.52;0.82;;;20.60;57.20;;;;;;5084531;28;20029;-38
2021/04/27 04:06:35;;;;;;;0.75;0.70;;;20.60;57.30;;;;;;5102628;28;20042;-37
2021/04/27 04:09:03;;;;;;;0.80;0.80;;;20.60;57.30;;;;;;5102411;28;20047;-38
2021/04/27 04:11:31;;;;;;;0.60;0.60;;;20.60;57.30;;;;;;5102074;28;20039;-37
2021/04/27 04:13:57;;;;;;;0.70;0.60;;;20.60;57.30;;;;;;5102396;28;20048;-39
2021/04/27 04:16:24;;;;;;;0.95;0.70;;;20.60;57.30;;;;;;5102462;28;20035;-38
2021/04/27 04:18:50;;;;;;;0.65;0.65;;;20.60;57.30;;;;;;5102820;28;20058;-38
2021/04/27 04:21:16;;;;;;;0.70;0.70;;;20.60;57.40;;;;;;5102255;28;20020;-37
2021/04/27 04:23:42;;;;;;;0.70;0.70;;;20.60;57.40;;;;;;5101706;28;20042;-37
2021/04/27 04:26:09;;;;;;;0.70;0.70;;;20.50;57.40;;;;;;5102435;28;20028;-37
2021/04/27 04:28:35;;;;;;;0.73;0.73;;;20.50;57.40;;;;;;5102580;28;20028;-38
2021/04/27 04:31:01;;;;;;;0.82;0.82;;;20.50;57.40;;;;;;5102214;28;20021;-37
2021/04/27 04:33:27;;;;;;;0.77;0.60;;;20.40;57.40;;;;;;5102388;28;20032;-37
2021/04/27 04:35:53;;;;;;;1.48;1.05;;;20.40;57.50;;;;;;5102393;28;20020;-37
2021/04/27 04:38:19;;;;;;;1.10;0.88;;;20.40;57.50;;;;;;5102501;28;20572;-37
2021/04/27 04:40:46;;;;;;;0.73;0.70;;;20.40;57.40;;;;;;5101808;28;20079;-37
2021/04/27 04:43:13;;;;;;;1.00;0.90;;;20.40;57.50;;;;;;5102516;28;20055;-38
2021/04/27 04:45:39;;;;;;;0.75;0.75;;;20.40;57.50;;;;;;5102473;28;20028;-38
2021/04/27 04:48:06;;;;;;;1.00;0.90;;;20.30;57.50;;;;;;5102475;28;20028;-38
2021/04/27 04:50:32;;;;;;;1.17;0.90;;;20.30;57.50;;;;;;5102391;28;20028;-37
2021/04/27 04:52:58;;;;;;;0.73;0.60;;;20.30;57.50;;;;;;5101225;28;20044;-37
2021/04/27 04:55:24;;;;;;;0.70;0.70;;;20.30;57.60;;;;;;5095822;28;20070;-37
2021/04/27 04:57:50;;;;;;;1.75;0.80;;;20.30;57.50;;;;;;5096175;28;20052;-37
2021/04/27 05:00:18;;;;;;;1.30;1.00;;;20.20;57.50;;;;;;5098920;28;20037;-37
2021/04/27 05:02:43;;;;;;;;;;;20.30;57.60;;;;;;5099416;28;20032;-38
2021/04/27 05:05:10;;;;;;;0.95;0.80;;;20.30;57.50;;;;;;5098780;28;19937;-37
2021/04/27 05:07:43;;;;;;;0.80;0.80;;;20.20;57.60;;;;;;5098794;28;20557;-37
2021/04/27 05:10:10;;;;;;;0.90;0.70;;;20.20;57.60;;;;;;5098416;28;20059;-37
2021/04/27 05:12:36;;;;;;;0.90;0.90;;;20.20;57.60;;;;;;5097993;28;20043;-37
2021/04/27 05:15:03;;;;;;;1.20;0.90;;;20.20;57.60;;;;;;5098074;28;20644;-38
2021/04/27 05:17:29;;;;;;;0.70;0.70;;;20.20;57.70;;;;;;5098078;28;20027;-37
2021/04/27 05:19:55;;;;;;;1.10;0.80;;;20.20;57.80;;;;;;5079921;28;20071;-37
2021/04/27 05:22:22;;;;;;;1.50;0.98;;;20.10;57.70;;;;;;5080829;28;20020;-37
2021/04/27 05:24:48;;;;;;;1.40;0.80;;;20.10;57.70;;;;;;5102782;28;20115;-38
2021/04/27 05:27:14;;;;;;;0.90;0.90;;;20.10;57.80;;;;;;5105039;28;20032;-37
2021/04/27 05:29:42;;;;;;;1.10;0.90;;;20.10;57.80;;;;;;5105670;28;20039;-37
2021/04/27 05:32:09;;;;;;;1.05;0.95;;;20.10;57.80;;;;;;5105246;28;20036;-37
2021/04/27 05:34:35;;;;;;;0.80;0.80;;;20.10;57.80;;;;;;5105341;28;20036;-37
2021/04/27 05:37:02;;;;;;;0.80;0.80;;;20.10;57.90;;;;;;5087352;28;20024;-37
2021/04/27 05:39:28;;;;;;;0.80;0.75;;;20.00;57.80;;;;;;5086931;28;20070;-38
2021/04/27 05:41:54;;;;;;;1.27;0.90;;;20.00;57.90;;;;;;5104914;28;20028;-37
2021/04/27 05:44:20;;;;;;;0.90;0.88;;;20.00;57.90;;;;;;5105408;28;20027;-37
2021/04/27 05:46:47;;;;;;;0.80;0.80;;;20.00;57.90;;;;;;5105140;28;20024;-37
2021/04/27 05:49:13;;;;;;;2.17;0.80;;;20.00;57.80;;;;;;5105245;28;20087;-37
2021/04/27 05:51:39;;;;;;;1.02;0.93;;;20.00;57.90;;;;;;5104984;28;20076;-37
2021/04/27 05:54:05;;;;;;;1.08;0.95;;;20.00;57.90;;;;;;5086257;28;20082;-37
2021/04/27 05:56:35;;;;;;;1.55;1.10;;;19.90;57.90;;;;;;5104981;28;20019;-37
2021/04/27 05:59:01;;;;;;;0.75;0.73;;;19.90;57.90;;;;;;5104947;28;20031;-37
2021/04/27 06:01:27;;;;;;;1.08;0.98;;;19.90;58.00;;;;;;5104913;28;20106;-38
2021/04/27 06:03:54;;;;;;;0.60;0.50;;;19.90;58.00;;;;;;5104700;28;20042;-37
2021/04/27 06:06:20;;;;;;;0.90;0.90;;;19.90;58.00;;;;;;5104844;28;20048;-37
2021/04/27 06:08:46;;;;;;;1.17;0.90;;;19.90;58.00;;;;;;5085812;28;20289;-38
2021/04/27 06:11:13;;;;;;;1.00;0.90;;;19.90;58.10;;;;;;5104485;28;20083;-37
2021/04/27 06:13:39;;;;;;;1.27;0.90;;;19.80;57.90;;;;;;5104458;28;20103;-37
2021/04/27 06:16:05;;;;;;;1.10;0.80;;;19.80;58.00;;;;;;5104577;28;20083;-37
2021/04/27 06:18:31;;;;;;;1.02;0.93;;;19.80;58.00;;;;;;5104623;28;20497;-37
2021/04/27 06:20:58;;;;;;;1.40;0.98;;;19.80;58.00;;;;;;5104173;28;20039;-37
2021/04/27 06:23:25;;;;;;;1.10;1.00;;;19.80;58.10;;;;;;5104002;28;20028;-37
2021/04/27 06:25:51;;;;;;;0.95;0.93;;;19.80;58.10;;;;;;5104341;28;20024;-37
2021/04/27 06:28:17;;;;;;;3.88;1.10;;;19.80;58.10;;;;;;5104457;28;20489;-37
2021/04/27 06:30:44;;;;;;;1.00;0.90;;;19.70;58.10;;;;;;5104102;28;20031;-36
2021/04/27 06:33:10;;;;;;;1.30;1.10;;;19.70;58.10;;;;;;5104138;28;20047;-38
2021/04/27 06:35:36;;;;;;;1.10;1.00;;;19.70;58.20;;;;;;5104225;28;20024;-37
2021/04/27 06:38:03;;;;;;;1.00;0.80;;;19.70;58.10;;;;;;5104061;28;20028;-37
2021/04/27 06:40:29;;;;;;;1.20;1.10;;;19.70;58.20;;;;;;5104178;28;20610;-37
2021/04/27 06:42:55;;;;;;;1.20;1.10;;;19.70;58.20;;;;;;5103770;28;20322;-37
2021/04/27 06:45:22;;;;;;;0.98;0.90;;;19.60;58.10;;;;;;5104068;28;20028;-37
2021/04/27 06:47:48;;;;;;;0.80;0.80;;;19.60;58.20;;;;;;5104633;28;20028;-37
2021/04/27 06:50:17;;;;;;;1.02;0.93;;;19.70;58.20;;;;;;5085675;28;20040;-37
2021/04/27 06:52:44;;;;;;;1.05;0.95;;;19.60;58.20;;;;;;5085148;28;20036;-37
2021/04/27 06:55:10;;;;;;;1.20;0.88;;;19.60;58.10;;;;;;5103800;28;20032;-37
2021/04/27 06:57:37;;;;;;;0.83;0.83;;;19.60;58.20;;;;;;5103110;28;20039;-37
2021/04/27 07:00:05;;;;;;;1.05;0.95;;;19.60;58.20;;;;;;5103868;28;20248;-37
2021/04/27 07:02:31;;;;;;;1.10;0.93;;;19.60;58.30;;;;;;5103318;28;20024;-37
2021/04/27 07:04:57;;;;;;;1.23;0.95;;;19.50;58.20;;;;;;5103496;28;20024;-38
2021/04/27 07:07:24;;;;;;;1.08;0.98;;;19.50;58.20;;;;;;5103453;28;20504;-39
2021/04/27 07:09:50;;;;;;;1.00;0.90;;;19.50;58.30;;;;;;5103416;28;20063;-37
2021/04/27 07:12:17;;;;;;;1.08;0.98;;;19.50;58.40;;;;;;5102953;28;20099;-38
2021/04/27 07:14:43;;;;;;;1.20;1.10;;;19.50;58.30;;;;;;5103173;28;20040;-37
2021/04/27 07:17:11;;;;;;;1.10;1.00;;;19.50;58.40;;;;;;5103406;28;20068;-37
2021/04/27 07:19:37;;;;;;;1.35;1.00;;;19.40;58.40;;;;;;5103058;28;20102;-37
2021/04/27 07:22:03;;;;;;;1.00;1.00;;;19.40;58.40;;;;;;5101300;28;20024;-38
2021/04/27 07:24:31;;;;;;;1.33;1.08;;;19.40;58.40;;;;;;5092457;28;20089;-38
2021/04/27 07:26:57;;;;;;;1.10;1.00;;;19.40;58.40;;;;;;5103069;28;20024;-37
2021/04/27 07:29:23;;;;;;;1.02;0.93;;;19.40;58.40;;;;;;5103172;28;20039;-37
2021/04/27 07:31:49;;;;;;;1.90;0.77;;;19.40;58.40;;;;;;5103346;28;20635;-37
2021/04/27 07:34:15;;;;;;;1.08;0.90;;;19.40;58.40;;;;;;5118349;28;20042;-37
2021/04/27 07:36:41;;;;;;;1.10;0.82;;;19.40;58.50;;;;;;5109080;28;20024;-37
2021/04/27 07:39:09;;;;;;;1.20;1.10;;;19.40;58.50;;;;;;5125835;27;20082;-37
2021/04/27 07:41:35;;;;;;;0.80;0.80;;;19.40;58.50;;;;;;5103021;28;20031;-37
2021/04/27 07:44:01;;;;;;;1.43;1.00;;;19.30;58.50;;;;;;5100559;27;20080;-38
2021/04/27 07:46:28;;;;;;;0.98;0.90;;;19.30;58.40;;;;;;5125602;27;20051;-38
2021/04/27 07:48:54;;;;;;;1.08;1.00;;;19.30;58.50;;;;;;5143963;27;20055;-38
2021/04/27 07:51:20;;;;;;;1.25;1.00;;;19.30;58.40;;;;;;5144032;27;20027;-41
2021/04/27 07:53:46;;;;;;;1.00;0.90;;;19.30;58.50;;;;;;5138292;27;20035;-37
2021/04/27 07:56:12;;;;;;;1.20;0.80;;;19.30;58.50;;;;;;5123201;28;20114;-38
2021/04/27 07:58:39;;;;;;;1.20;1.10;;;19.30;58.50;;;;;;5123160;28;20031;-37
2021/04/27 08:01:05;;;;;;;2.00;0.85;;;19.20;58.60;;;;;;5123206;28;20024;-38
2021/04/27 08:03:31;;;;;;;0.80;0.80;;;19.20;58.60;;;;;;5123062;28;20122;-37
2021/04/27 08:05:57;;;;;;;1.38;0.90;;;19.20;58.70;;;;;;5123058;28;20087;-38
2021/04/27 08:08:24;;;;;;;1.08;0.98;;;19.20;58.70;;;;;;5122903;28;20067;-37
2021/04/27 08:10:50;;;;;;;1.05;0.88;;;19.20;58.70;;;;;;5137315;27;20111;-38
2021/04/27 08:13:16;;;;;;;0.88;0.88;;;19.20;58.80;;;;;;5143206;27;20043;-37
2021/04/27 08:15:42;;;;;;;1.10;1.00;;;19.10;58.70;;;;;;5143210;27;20069;-37
2021/04/27 08:18:09;;;;;;;1.88;1.00;;;19.10;58.80;;;;;;5143455;27;20027;-37
2021/04/27 08:20:36;;;;;;;1.27;1.02;;;19.10;58.90;;;;;;5143518;28;20023;-37
2021/04/27 08:23:02;;;;;;;1.40;0.93;;;19.10;59.30;;;;;;5114881;28;20024;-37
2021/04/27 08:25:30;;;;;;;1.20;1.00;;;19.10;58.90;;;;;;5103757;28;20027;-37
2021/04/27 08:27:56;;;;;;;1.08;0.85;;;19.10;58.80;;;;;;5123849;28;20046;-37
2021/04/27 08:30:23;;;;;;;1.30;1.13;;;19.10;58.80;;;;;;5124332;28;20118;-37
2021/04/27 08:32:49;;;;;;;0.90;0.90;;;19.10;58.90;;;;;;5130408;27;20031;-37
2021/04/27 08:35:16;;;;;;;1.35;1.00;;;19.00;58.70;;;;;;5135469;27;20028;-37
2021/04/27 08:37:42;;;;;;;1.00;1.00;;;19.00;58.80;;;;;;5135051;27;20080;-37
2021/04/27 08:40:10;;;;;;;1.07;0.93;;;19.00;58.70;;;;;;5127566;27;20027;-37
2021/04/27 08:42:36;;;;;;;1.08;0.93;;;19.00;58.80;;;;;;5136089;27;20039;-38
2021/04/27 08:45:04;;;;;;;1.13;1.00;;;19.00;58.80;;;;;;5132755;27;20024;-37
2021/04/27 08:47:30;;;;;;;1.75;0.90;;;19.00;58.90;;;;;;5132683;27;20023;-37
2021/04/27 08:49:56;;;;;;;1.40;1.08;;;19.00;58.80;;;;;;5111320;27;20028;-38
2021/04/27 08:52:22;;;;;;;0.88;0.88;;;18.90;59.00;;;;;;5127520;27;20036;-37
2021/04/27 08:54:48;;;;;;;0.77;0.77;;;18.90;59.00;;;;;;5138939;27;20027;-37
2021/04/27 08:57:15;;;;;;;0.80;0.80;;;18.90;59.00;;;;;;5146899;27;20100;-37
2021/04/27 08:59:41;;;;;;;1.00;0.90;;;18.90;59.10;;;;;;5147266;27;20091;-37
2021/04/27 09:02:08;;;;;;;0.95;0.88;;;18.90;59.10;;;;;;5147191;27;20023;-37
2021/04/27 09:04:43;;;;;;;0.82;0.82;;;18.90;59.20;;;;;;5146884;27;20023;-37
2021/04/27 09:07:14;;;;;;;1.63;1.30;;;18.90;58.90;;;;;;5147189;27;20039;-37
2021/04/27 09:09:45;;;;;;;0.98;0.90;;;18.90;59.00;;;;;;5142351;27;20531;-37
2021/04/27 09:12:12;;;;;;;1.00;0.90;;;18.90;59.10;;;;;;5126011;28;20031;-37
2021/04/27 09:14:40;;;;;;;1.00;1.00;;;18.80;59.10;;;;;;5125929;28;20035;-37
2021/04/27 09:17:08;;;;;;;0.73;0.73;;;18.80;59.20;;;;;;5126135;28;20023;-37
2021/04/27 09:19:41;;;;;;;0.93;0.82;;;18.80;59.10;;;;;;5126299;28;20057;-38
2021/04/27 09:22:23;;;;;;;0.95;0.90;;;18.80;59.10;;;;;;5126126;28;20772;-37
2021/04/27 09:24:56;;;;;;;1.10;1.00;;;18.80;59.20;;;;;;5127667;27;20107;-37
2021/04/27 09:27:40;;;;;;;1.10;1.00;;;18.80;59.00;;;;;;5131841;27;20038;-38
2021/04/27 09:30:27;;;;;;;1.35;0.90;;;18.80;59.20;;;;;;5131174;27;20149;-37
2021/04/27 09:33:07;;;;;;;1.00;0.90;;;18.70;59.20;;;;;;5127879;27;20035;-37
2021/04/27 09:35:35;;;;;;;1.15;1.00;;;18.70;59.10;;;;;;5128551;27;20090;-37
2021/04/27 09:38:21;;;;;;;0.80;0.70;;;18.70;59.20;;;;;;5132536;27;20118;-38
2021/04/27 09:40:58;;;;;;;1.30;1.20;;;18.70;59.30;;;;;;5130628;27;20027;-37
2021/04/27 09:43:32;;;;;;;1.00;0.95;;;18.70;59.30;;;;;;5130219;27;20128;-37
2021/04/27 09:46:00;;;;;;;1.25;0.90;;;18.70;59.30;;;;;;5127535;27;20035;-37
2021/04/27 09:48:35;;;;;;;1.20;1.10;;;18.60;59.30;;;;;;5134177;27;20051;-38
2021/04/27 09:51:21;;;;;;;1.23;1.00;;;18.60;59.20;;;;;;5126736;27;20088;-38
2021/04/27 09:53:55;;;;;;;1.88;0.98;;;18.60;59.30;;;;;;5131036;27;20040;-37
2021/04/27 09:56:50;;;;;;;1.25;1.15;;;18.60;59.30;;;;;;5125516;28;20020;-38
2021/04/27 09:59:24;;;;;;;1.25;1.00;;;18.60;59.30;;;;;;5125550;28;20110;-37
2021/04/27 10:01:52;;;;;;;0.93;0.88;;;18.60;59.40;;;;;;5107541;28;20095;-37
2021/04/27 10:04:19;;;;;;;0.88;0.75;;;18.60;59.40;;;;;;5125389;28;20110;-37
2021/04/27 10:06:46;;;;;;;1.48;1.10;;;18.50;59.40;;;;;;5124887;28;20054;-37
2021/04/27 10:09:12;;;;;;;1.10;1.00;;;18.50;59.50;;;;;;5124528;28;20069;-38
2021/04/27 10:11:39;;;;;;;1.20;1.10;;;18.50;59.40;;;;;;5115140;28;20028;-38
2021/04/27 10:14:06;;;;;;;0.80;0.80;;;18.50;59.50;;;;;;5124879;28;20801;-37
2021/04/27 10:16:35;;;;;;;0.98;0.85;;;18.50;59.50;;;;;;5125112;28;20023;-37
2021/04/27 10:19:03;;;;;;;1.80;1.08;;;18.50;59.50;;;;;;5125081;28;20042;-37
2021/04/27 10:21:29;;;;;;;;;;;18.50;59.50;;;;;;5125484;28;20050;-37
2021/04/27 10:23:57;;;;;;;1.15;0.90;;;18.50;59.50;;;;;;5124914;28;19914;-37
2021/04/27 10:26:27;;;;;;;1.20;1.10;;;18.50;59.50;;;;;;5124923;27;20023;-37
2021/04/27 10:29:00;;;;;;;1.20;1.10;;;18.40;59.60;;;;;;5124502;28;20041;-38
2021/04/27 10:31:30;;;;;;;1.20;1.08;;;18.40;59.50;;;;;;5124902;28;20104;-37
2021/04/27 10:34:07;;;;;;;1.00;0.90;;;18.40;59.50;;;;;;5124899;28;20032;-37
2021/04/27 10:36:36;;;;;;;1.00;1.00;;;18.40;59.60;;;;;;5124919;28;20053;-37
2021/04/27 10:39:05;;;;;;;2.00;1.20;;;18.40;59.60;;;;;;5124384;28;20115;-38
2021/04/27 10:41:53;;;;;;;1.23;1.02;;;18.40;59.60;;;;;;5086380;28;20024;-38
2021/04/27 10:44:20;;;;;;;1.08;1.00;;;18.40;59.60;;;;;;5104133;28;20036;-38
2021/04/27 10:46:50;;;;;;;0.95;0.90;;;18.30;59.50;;;;;;5104272;28;20040;-37
2021/04/27 10:49:37;;;;;;;1.45;1.02;;;18.30;59.60;;;;;;5103736;28;20036;-38
2021/04/27 10:52:04;;;;;;;1.05;0.95;;;18.30;59.60;;;;;;5105943;27;20484;-36
2021/04/27 10:54:37;;;;;;;;;;;18.30;59.60;;;;;;5124523;28;20032;-37
2021/04/27 10:57:06;;;;;;;0.98;0.95;;;18.30;59.70;;;;;;5140171;27;19907;-37
2021/04/27 10:59:52;;;;;;;1.05;0.80;;;18.30;59.70;;;;;;5124025;28;20027;-37
2021/04/27 11:02:24;;;;;;;1.10;1.00;;;18.20;59.70;;;;;;5127611;27;20055;-37
2021/04/27 11:05:20;;;;;;;1.05;1.05;;;18.20;59.70;;;;;;5123958;28;20480;-37
2021/04/27 11:07:47;;;;;;;1.15;0.82;;;18.20;59.70;;;;;;5118859;28;20059;-38
2021/04/27 11:10:13;;;;;;;2.10;1.17;;;18.20;59.80;;;;;;5123772;28;20031;-37
2021/04/27 11:12:41;;;;;;;1.15;1.05;;;18.20;59.80;;;;;;5123639;28;20118;-37
2021/04/27 11:15:29;;;;;;;1.00;0.80;;;18.20;59.80;;;;;;5124187;28;20035;-37
2021/04/27 11:18:04;;;;;;;1.13;1.02;;;18.20;59.80;;;;;;5112608;28;20499;-37
2021/04/27 11:20:56;;;;;;;1.00;0.88;;;18.20;59.80;;;;;;5123958;28;20032;-37
2021/04/27 11:23:52;;;;;;;1.30;1.02;;;18.10;59.80;;;;;;5125490;27;20024;-37
2021/04/27 11:26:33;;;;;;;0.93;0.93;;;18.10;59.80;;;;;;5128140;27;20039;-38
2021/04/27 11:29:01;;;;;;;1.20;0.90;;;18.10;59.70;;;;;;5130563;27;20044;-37
2021/04/27 11:31:27;;;;;;;1.20;1.10;;;18.10;59.80;;;;;;5107151;27;20027;-38
2021/04/27 11:33:57;;;;;;;2.03;1.00;;;18.10;59.80;;;;;;5108460;27;20045;-37
2021/04/27 11:36:37;;;;;;;0.88;0.88;;;18.10;59.80;;;;;;5127104;27;20030;-39
2021/04/27 11:39:20;;;;;;;1.10;1.00;;;18.10;59.70;;;;;;5127979;27;20034;-37
2021/04/27 11:41:53;;;;;;;0.95;0.88;;;18.10;59.70;;;;;;5124486;27;20019;-36
2021/04/27 11:44:20;;;;;;;1.17;1.08;;;18.10;59.90;;;;;;5130839;27;20023;-37
2021/04/27 11:46:56;;;;;;;1.30;1.10;;;18.10;59.90;;;;;;5130698;27;20066;-37
2021/04/27 11:49:42;;;;;;;1.10;1.00;;;18.10;59.90;;;;;;5127368;27;20114;-37
2021/04/27 11:52:08;;;;;;;1.15;1.05;;;18.10;59.80;;;;;;5109488;27;20094;-38
2021/04/27 11:54:35;;;;;;;1.00;0.90;;;18.00;59.80;;;;;;5136043;27;20035;-37
2021/04/27 11:57:03;;;;;;;1.20;1.10;;;18.00;59.90;;;;;;5143673;27;20028;-37
2021/04/27 11:59:29;;;;;;;1.08;0.98;;;18.00;60.70;;;;;;5143763;27;20039;-37
2021/04/27 12:02:02;;;;;;;1.02;1.00;;;18.00;60.00;;;;;;5143710;27;20027;-37
2021/04/27 12:04:28;;;;;;;1.20;1.10;;;18.00;59.90;;;;;;5143388;27;20039;-37
2021/04/27 12:07:01;;;;;;;1.38;0.90;;;18.00;59.90;;;;;;5143045;27;20038;-37
2021/04/27 12:09:32;;;;;;;1.05;0.95;;;18.00;59.90;;;;;;5140587;27;20107;-38
2021/04/27 12:12:18;;;;;;;0.80;0.80;;;17.90;59.90;;;;;;5104334;28;20020;-37
2021/04/27 12:14:51;;;;;;;0.70;0.70;;;17.90;59.80;;;;;;5122620;28;20039;-37
2021/04/27 12:17:31;;;;;;;1.20;1.10;;;17.90;59.80;;;;;;5122980;28;20025;-37
2021/04/27 12:20:16;;;;;;;1.40;0.80;;;17.90;60.00;;;;;;5122713;28;20059;-37
2021/04/27 12:22:55;;;;;;;0.93;0.88;;;17.90;59.90;;;;;;5129996;28;20027;-37
2021/04/27 12:25:26;;;;;;;0.85;0.85;;;17.90;59.90;;;;;;5125739;28;20024;-41
2021/04/27 12:28:03;;;;;;;1.08;0.98;;;17.90;59.90;;;;;;5122614;28;20023;-37
2021/04/27 12:30:30;;;;;;;1.00;0.90;;;17.90;59.90;;;;;;5104497;28;20027;-37
2021/04/27 12:33:02;;;;;;;;;;;17.90;59.90;;;;;;5123007;28;20035;-37
2021/04/27 12:35:30;;;;;;;0.90;0.80;;;17.90;59.80;;;;;;5122406;28;19922;-37
2021/04/27 12:38:03;;;;;;;0.82;0.82;;;17.90;59.80;;;;;;5122523;28;20031;-37
2021/04/27 12:40:35;;;;;;;0.95;0.95;;;17.90;59.90;;;;;;5133818;28;20031;-38
2021/04/27 12:43:12;;;;;;;0.75;0.68;;;17.90;59.80;;;;;;5143103;28;20035;-37
2021/04/27 12:45:52;;;;;;;1.02;0.93;;;17.90;59.80;;;;;;5142970;28;20122;-37
2021/04/27 12:48:19;;;;;;;0.90;0.80;;;17.90;59.90;;;;;;5124505;28;20038;-37
2021/04/27 12:50:51;;;;;;;0.80;0.80;;;17.90;59.80;;;;;;5143092;28;20051;-37
2021/04/27 12:53:18;;;;;;;1.23;1.13;;;17.90;59.90;;;;;;5132910;28;20044;-37
2021/04/27 12:55:54;;;;;;;1.10;1.00;;;17.90;59.90;;;;;;5105195;28;20694;-40